Overview Statistics Trail Chart Weather Telemetry Raw packets
 

This is the latest recevied weather packets stored in our database for station/object IR9AK-10. If no packets are shown the sender has not sent any weather packets the latest 10 day(s).

<< 26 27 28 29 30 31 32 >>
Time Temp. Humidity Pressure Rain* Wind** Luminosity Snow
1788195724 40.56° C 39% 1060.3 hPa - - - -
1788195125 40.56° C 39% 1060.2 hPa - - - -
1788194525 41.11° C 38% 1060.3 hPa - - - -
1788193926 41.11° C 38% 1060.2 hPa - - - -
1788193327 41.11° C 38% 1060.1 hPa - - - -
1788192729 41.11° C 38% 1060.2 hPa - - - -
1788192129 41.11° C 38% 1060.2 hPa - - - -
1788191531 40.56° C 38% 1060.1 hPa - - - -
1788190931 41.11° C 38% 1060.1 hPa - - - -
1788190331 41.67° C 37% 1060 hPa - - - -
1788189732 41.67° C 36% 1060 hPa - - - -
1788189132 42.78° C 35% 1059.8 hPa - - - -
1788188533 45.56° C 29% 1059.7 hPa - - - -
1788187934 47.22° C 27% 1059.8 hPa - - - -
1788187334 48.89° C 25% 1059.7 hPa - - - -
1788186736 47.22° C 27% 1059.7 hPa - - - -
1788186138 42.22° C 34% 1059.8 hPa - - - -
1788185538 41.67° C 35% 1059.9 hPa - - - -
1788184940 41.11° C 36% 1060.1 hPa - - - -
1788184341 41.11° C 35% 1060.2 hPa - - - -
1788183742 41.11° C 34% 1060.1 hPa - - - -
1788183143 41.11° C 35% 1060 hPa - - - -
1788182543 41.11° C 35% 1060 hPa - - - -
1788181945 41.11° C 35% 1060 hPa - - - -
1788181346 41.11° C 35% 1060.1 hPa - - - -

* Rain since midnight (hover to see other rain measurements)
** Current wind speed in m/s (hover to see current wind gust speed)